createdAt,value
2022-12-05T00:02:39.549Z,99058.23
2022-12-05T00:07:40.707Z,99051.15
2022-12-05T00:12:46.505Z,99049.05
2022-12-05T00:17:47.669Z,99041.98
2022-12-05T00:22:48.756Z,99034.63
2022-12-05T00:27:50.309Z,99031.58
2022-12-05T00:32:51.553Z,99029.34
2022-12-05T00:37:52.622Z,99026.77
2022-12-05T00:42:53.777Z,99022.22
2022-12-05T00:48:01.082Z,99011.56
2022-12-05T00:53:02.393Z,99013.83
2022-12-05T00:58:03.807Z,99022.73
2022-12-05T01:03:04.930Z,99021.15
2022-12-05T01:08:06.111Z,99022.27
2022-12-05T01:13:07.291Z,99029.98
2022-12-05T01:18:08.352Z,99022.88
2022-12-05T01:23:09.511Z,99018.22
2022-12-05T01:28:10.742Z,99022.48
2022-12-05T01:33:12.178Z,99025.73
2022-12-05T01:38:13.406Z,99021.98
2022-12-05T01:43:16.620Z,99014.70
2022-12-05T01:48:25.220Z,99007.15
2022-12-05T01:53:27.721Z,99017.65
2022-12-05T01:58:35.373Z,99028.23
2022-12-05T02:03:37.379Z,99043.29
2022-12-05T02:08:39.306Z,99050.77
2022-12-05T02:14:19.610Z,99043.86
2022-12-05T02:19:55.111Z,99036.64
2022-12-05T02:25:21.638Z,99036.27
2022-12-05T02:30:24.645Z,99029.42
2022-12-05T02:35:36.113Z,99034.93
2022-12-05T02:40:46.918Z,99046.17
2022-12-05T02:45:53.941Z,99037.52
2022-12-05T02:50:59.296Z,99035.58
2022-12-05T02:56:01.170Z,99033.69
2022-12-05T03:01:03.280Z,99025.13
2022-12-05T03:06:11.270Z,99022.08
2022-12-05T03:11:12.790Z,99024.95
2022-12-05T03:16:28.158Z,99026.48
2022-12-05T03:21:31.659Z,99017.03
2022-12-05T03:26:56.424Z,99009.65
2022-12-05T03:32:09.076Z,98999.18
2022-12-05T03:37:18.785Z,98985.95
2022-12-05T03:42:31.043Z,98978.37
2022-12-05T03:47:41.798Z,98969.70
2022-12-05T03:53:18.221Z,98978.42
2022-12-05T03:58:26.132Z,98981.70
2022-12-05T04:03:42.189Z,98984.48
2022-12-05T04:08:50.827Z,98982.73
2022-12-05T04:13:56.415Z,98973.96
2022-12-05T04:19:51.175Z,98981.38
2022-12-05T04:25:14.125Z,99001.89
2022-12-05T04:30:29.493Z,99014.00
2022-12-05T04:35:41.114Z,99008.55
2022-12-05T04:41:12.537Z,98991.31
2022-12-05T04:46:17.699Z,98985.59
2022-12-05T04:51:23.446Z,98987.08
2022-12-05T04:56:28.572Z,98989.43
2022-12-05T05:01:29.796Z,98989.90
2022-12-05T05:06:31.404Z,98986.17
2022-12-05T05:11:34.653Z,98985.34
2022-12-05T05:16:39.318Z,98986.54
2022-12-05T05:21:42.327Z,98982.55
2022-12-05T05:26:45.441Z,98976.44
2022-12-05T05:31:46.664Z,98968.08
2022-12-05T05:36:52.498Z,98965.92
2022-12-05T05:41:53.657Z,98965.27
2022-12-05T05:46:55.035Z,98957.02
2022-12-05T05:51:56.235Z,98949.94
2022-12-05T05:56:57.349Z,98955.30
2022-12-05T06:01:58.454Z,98958.89
2022-12-05T06:06:59.532Z,98966.20
2022-12-05T06:12:00.703Z,98963.64
2022-12-05T06:17:01.889Z,98963.60
2022-12-05T06:22:03.092Z,98956.59
2022-12-05T06:27:04.722Z,98956.64
2022-12-05T06:32:05.965Z,98961.41
2022-12-05T06:37:07.551Z,98964.33
2022-12-05T06:42:09.048Z,98970.27
2022-12-05T06:47:10.433Z,98971.42
2022-12-05T06:52:12.261Z,98974.63
2022-12-05T06:57:14.036Z,98968.80
2022-12-05T07:02:15.243Z,98972.33
2022-12-05T07:07:16.407Z,98980.17
2022-12-05T07:12:19.052Z,98987.02
2022-12-05T07:17:21.588Z,98991.36
2022-12-05T07:22:23.386Z,98985.40
2022-12-05T07:27:27.732Z,98984.61
2022-12-05T07:32:33.836Z,98980.20
2022-12-05T07:37:35.093Z,98982.36
2022-12-05T07:42:36.360Z,98977.28
2022-12-05T07:47:37.571Z,98982.01
2022-12-05T07:52:39.134Z,98988.44
2022-12-05T07:57:40.230Z,98990.46
2022-12-05T08:02:41.440Z,98994.91
2022-12-05T08:07:42.926Z,98993.08
2022-12-05T08:12:44.118Z,98999.86
2022-12-05T08:17:45.301Z,99000.02
2022-12-05T08:22:46.463Z,98999.13
2022-12-05T08:27:47.726Z,99003.67
2022-12-05T08:32:48.777Z,98999.59
2022-12-05T08:37:50.332Z,99003.08
2022-12-05T08:42:51.446Z,99004.83
2022-12-05T08:47:52.560Z,99004.40
2022-12-05T08:52:53.739Z,99006.41
2022-12-05T08:57:54.896Z,99001.54
2022-12-05T09:02:56.131Z,98999.60
2022-12-05T09:07:58.802Z,99002.23
2022-12-05T09:13:00.844Z,99005.62
2022-12-05T09:18:05.064Z,99006.38
2022-12-05T09:23:06.435Z,99002.59
2022-12-05T09:28:08.102Z,99001.77
2022-12-05T09:33:09.267Z,98999.66
2022-12-05T09:38:10.321Z,98998.20
2022-12-05T09:43:43.026Z,98991.28
2022-12-05T09:48:44.487Z,98986.15
2022-12-05T09:53:46.042Z,98980.92
2022-12-05T09:58:53.292Z,98980.48
2022-12-05T10:04:34.387Z,98978.81
2022-12-05T10:09:55.387Z,98970.27
2022-12-05T10:15:15.488Z,98972.67
2022-12-05T10:20:24.435Z,98964.20
2022-12-05T10:25:27.127Z,98962.52
2022-12-05T10:30:31.660Z,98961.67
2022-12-05T10:35:35.384Z,98970.67
2022-12-05T10:40:39.762Z,98973.45
2022-12-05T10:45:46.311Z,98982.09
2022-12-05T10:50:59.341Z,98981.11
2022-12-05T10:56:29.870Z,98976.67
2022-12-05T11:01:22.236Z,98967.86
2022-12-05T11:06:27.498Z,98963.29
2022-12-05T11:11:32.757Z,98965.83
2022-12-05T11:16:37.398Z,98962.33
2022-12-05T11:21:42.704Z,98955.08
2022-12-05T11:26:45.148Z,98956.50
2022-12-05T11:31:51.635Z,98958.91
2022-12-05T11:36:57.838Z,98959.00
2022-12-05T11:41:58.829Z,98954.74
2022-12-05T11:47:17.253Z,98955.79
2022-12-05T11:52:38.928Z,98957.23
2022-12-05T11:57:56.960Z,98955.76
2022-12-05T12:03:17.821Z,98958.61
2022-12-05T12:08:28.611Z,98953.38
2022-12-05T12:13:39.447Z,98946.21
2022-12-05T12:18:53.117Z,98941.23
2022-12-05T12:24:07.588Z,98933.20
2022-12-05T12:29:35.639Z,98931.27
2022-12-05T12:35:09.178Z,98933.41
2022-12-05T12:40:23.038Z,98924.80
2022-12-05T12:45:54.289Z,98921.55
2022-12-05T12:50:59.468Z,98923.20
2022-12-05T12:56:18.329Z,98916.76
2022-12-05T13:01:52.731Z,98918.92
2022-12-05T13:07:03.339Z,98924.59
2022-12-05T13:12:10.144Z,98923.23
2022-12-05T13:17:19.049Z,98921.05
2022-12-05T13:22:22.722Z,98923.38
2022-12-05T13:27:27.111Z,98922.39
2022-12-05T13:32:35.559Z,98923.58
2022-12-05T13:38:04.712Z,98924.51
2022-12-05T13:43:06.214Z,98925.52
2022-12-05T13:48:36.090Z,98921.13
2022-12-05T13:53:43.167Z,98924.23
2022-12-05T13:58:51.888Z,98930.41
2022-12-05T14:03:58.420Z,98935.85
2022-12-05T14:09:00.504Z,98938.89
2022-12-05T14:14:04.822Z,98935.95
2022-12-05T14:19:42.897Z,98940.58
2022-12-05T14:25:11.331Z,98945.01
2022-12-05T14:30:29.258Z,98948.69
2022-12-05T14:35:45.420Z,98951.42
2022-12-05T14:40:47.427Z,98955.23
2022-12-05T14:45:51.913Z,98956.14
2022-12-05T14:50:55.832Z,98948.45
2022-12-05T14:55:59.848Z,98943.02
2022-12-05T15:01:10.109Z,98943.86
2022-12-05T15:06:14.975Z,98946.42
2022-12-05T15:11:27.536Z,98939.55
2022-12-05T15:16:32.890Z,98934.92
2022-12-05T15:21:42.650Z,98930.84
2022-12-05T15:26:55.607Z,98930.76
2022-12-05T15:32:03.007Z,98930.71
2022-12-05T15:37:21.764Z,98928.17
2022-12-05T15:42:31.611Z,98920.48
2022-12-05T15:47:32.618Z,98918.38
2022-12-05T15:52:43.988Z,98915.07
2022-12-05T15:57:50.339Z,98914.44
2022-12-05T16:02:51.368Z,98916.00
2022-12-05T16:07:53.822Z,98917.30
2022-12-05T16:12:56.008Z,98924.85
2022-12-05T16:18:02.389Z,98922.19
2022-12-05T16:23:22.246Z,98924.77
2022-12-05T16:28:23.285Z,98929.30
2022-12-05T16:33:26.103Z,98922.39
2022-12-05T16:38:31.943Z,98924.23
2022-12-05T16:43:33.079Z,98924.91
2022-12-05T16:48:35.258Z,98926.80
2022-12-05T16:53:38.676Z,98921.52
2022-12-05T16:58:39.791Z,98923.33
2022-12-05T17:03:43.509Z,98930.70
2022-12-05T17:08:44.603Z,98931.01
2022-12-05T17:13:47.921Z,98933.50
2022-12-05T17:18:49.213Z,98932.47
2022-12-05T17:23:50.804Z,98936.59
2022-12-05T17:28:52.212Z,98938.94
2022-12-05T17:33:53.925Z,98940.77
2022-12-05T17:38:55.072Z,98939.98
2022-12-05T17:43:56.506Z,98943.02
2022-12-05T17:48:57.995Z,98941.07
2022-12-05T17:53:59.177Z,98940.50
2022-12-05T17:59:04.246Z,98938.48
2022-12-05T18:04:08.340Z,98940.21
2022-12-05T18:09:09.487Z,98943.00
2022-12-05T18:14:10.535Z,98941.16
2022-12-05T18:19:11.628Z,98940.75
2022-12-05T18:24:12.759Z,98939.79
2022-12-05T18:29:13.769Z,98936.57
2022-12-05T18:34:15.645Z,98929.55
2022-12-05T18:39:16.689Z,98926.70
2022-12-05T18:44:17.826Z,98924.73
2022-12-05T18:49:18.945Z,98923.99
2022-12-05T18:54:20.347Z,98926.59
2022-12-05T18:59:22.074Z,98928.77
2022-12-05T19:04:23.158Z,98925.95
2022-12-05T19:09:27.040Z,98919.83
2022-12-05T19:14:31.898Z,98914.38
2022-12-05T19:19:33.001Z,98914.44
2022-12-05T19:24:34.079Z,98914.02
2022-12-05T19:29:35.266Z,98919.65
2022-12-05T19:34:36.805Z,98923.17
2022-12-05T19:39:37.820Z,98925.61
2022-12-05T19:44:39.120Z,98927.54
2022-12-05T19:49:40.179Z,98921.82
2022-12-05T19:54:41.477Z,98915.96
2022-12-05T19:59:42.975Z,98914.52
2022-12-05T20:04:44.463Z,98911.55
2022-12-05T20:09:45.493Z,98911.89
2022-12-05T20:14:46.450Z,98914.80
2022-12-05T20:19:47.555Z,98914.82
2022-12-05T20:24:48.610Z,98920.73
2022-12-05T20:29:49.744Z,98914.74
2022-12-05T20:34:50.790Z,98915.83
2022-12-05T20:39:51.835Z,98910.52
2022-12-05T20:44:52.951Z,98909.42
2022-12-05T20:49:53.975Z,98907.26
2022-12-05T20:54:55.121Z,98908.02
2022-12-05T20:59:56.172Z,98911.75
2022-12-05T21:04:57.296Z,98908.70
2022-12-05T21:10:03.316Z,98904.33
2022-12-05T21:15:08.165Z,98905.48
2022-12-05T21:20:09.675Z,98906.32
2022-12-05T21:25:10.695Z,98897.95
2022-12-05T21:30:11.835Z,98896.23
2022-12-05T21:35:12.864Z,98890.80
2022-12-05T21:40:13.909Z,98891.27
2022-12-05T21:45:15.273Z,98883.89
2022-12-05T21:50:16.859Z,98879.59
2022-12-05T21:55:18.090Z,98880.00
2022-12-05T22:00:19.410Z,98879.52
2022-12-05T22:05:20.747Z,98878.73
2022-12-05T22:10:21.993Z,98881.69
2022-12-05T22:15:23.190Z,98876.36
2022-12-05T22:20:24.246Z,98875.40
2022-12-05T22:25:25.243Z,98867.90
2022-12-05T22:30:26.339Z,98866.11
2022-12-05T22:35:27.584Z,98862.79
2022-12-05T22:40:28.632Z,98861.70
2022-12-05T22:45:29.662Z,98863.86
2022-12-05T22:50:30.817Z,98861.96
2022-12-05T22:55:31.958Z,98852.02
2022-12-05T23:00:33.048Z,98834.14
2022-12-05T23:05:39.434Z,98827.48
2022-12-05T23:10:40.675Z,98833.52
2022-12-05T23:15:41.940Z,98834.73
2022-12-05T23:20:43.038Z,98827.40
2022-12-05T23:25:44.201Z,98813.65
2022-12-05T23:30:45.272Z,98805.77
2022-12-05T23:35:46.313Z,98801.67
2022-12-05T23:41:00.735Z,98798.38
2022-12-05T23:46:03.497Z,98790.54
2022-12-05T23:51:05.743Z,98790.03
2022-12-05T23:56:12.831Z,98783.65
